• Join FlightAware (Why Join?)
  • Login
  • US Flag 
10:52AM EDT


 

Airport Tracker/Info


-or-


 

Live Flight TrackerFlight Track Log ✈ EMD21 ✈ 08-Jun-2013 ✈ KFTW - KMLC

Flight Track Log - Related Links

Times and Time Zones

All times are in EDT time to prevent confusion due to time zone crossing. See the EMD21 flight status page for this flight to view local times or setup timezone preferences in your user account.

Time Position Orientation Groundspeed Altitude Reporting Facility
EDT Latitude Longitude Course Direction KTS MPH feet Rate Location/Type
09:19PM 32.8000 -97.3500 140° Southeast 122 140 1,300  Level Dallas / Fort Worth TRACON
09:20PM 32.7833 -97.3333 140° Southeast 144 166 2,400 1,320 Climbing Dallas / Fort Worth TRACON
09:21PM 32.8333 -97.3333 360° North 167 192 3,800 1,320 Climbing Dallas / Fort Worth TRACON
09:22PM 32.8667 -97.3333 360° North 160 184 5,000 1,260 Climbing Dallas / Fort Worth TRACON
09:23PM 32.9167 -97.3167 16° North 176 203 6,300 1,320 Climbing Dallas / Fort Worth TRACON
09:24PM 32.9667 -97.3167 360° North 162 186 7,700 1,320 Climbing Dallas / Fort Worth TRACON
09:24PM 32.9878 -97.3069 21° North 157 181 8,300 960 Climbing Fort Worth Center
09:25PM 33.0233 -97.2969 13° North 182 209 9,100 1,080 Climbing Fort Worth Center
09:26PM 33.0733 -97.2794 16° North 177 204 10,500 960 Climbing Fort Worth Center
09:27PM 33.1067 -97.2597 26° Northeast 156 180 11,100 300 Climbing Fort Worth Center
09:28PM 33.1506 -97.2100 43° Northeast 176 203 11,100  Level Fort Worth Center
09:29PM 33.1922 -97.1703 39° Northeast 199 229 11,100  Level Fort Worth Center
09:30PM 33.2464 -97.1228 36° Northeast 205 236 11,100  Level Fort Worth Center
09:31PM 33.3006 -97.0853 30° Northeast 220 253 11,100  Level Fort Worth Center
09:32PM 33.3442 -97.0453 37° Northeast 225 259 11,100  Level Fort Worth Center
09:33PM 33.3983 -97.0006 35° Northeast 220 253 11,100  Level Fort Worth Center
09:34PM 33.4464 -96.9628 33° Northeast 220 253 11,100  Level Fort Worth Center
09:35PM 33.5025 -96.9153 35° Northeast 220 253 11,100  Level Fort Worth Center
09:36PM 33.5503 -96.8800 32° Northeast 220 253 11,100  Level Fort Worth Center
09:37PM 33.6086 -96.8322 34° Northeast 220 253 11,100  Level Fort Worth Center
09:38PM 33.6564 -96.7922 35° Northeast 220 253 11,100  Level Fort Worth Center
09:39PM 33.7167 -96.7467 32° Northeast 220 253 11,100  Level Fort Worth Center
09:40PM 33.7644 -96.7064 35° Northeast 225 259 11,100  Level Fort Worth Center
09:41PM 33.8225 -96.6533 37° Northeast 230 265 11,100  Level Fort Worth Center
09:42PM 33.8744 -96.6181 29° Northeast 230 265 11,100  Level Fort Worth Center
09:43PM 33.9283 -96.5700 36° Northeast 230 265 11,100  Level Fort Worth Center
09:44PM 33.9825 -96.5242 35° Northeast 230 265 11,100  Level Fort Worth Center
09:45PM 34.0406 -96.4836 30° Northeast 230 265 11,100  Level Fort Worth Center
09:46PM 34.0944 -96.4353 37° Northeast 230 265 11,100  Level Fort Worth Center
09:47PM 34.1503 -96.3869 36° Northeast 230 265 11,100  Level Fort Worth Center
09:48PM 34.2083 -96.3436 32° Northeast 235 270 11,100 -360 Level Fort Worth Center
09:49PM 34.2622 -96.2928 38° Northeast 235 270 10,400 -900 Descending Fort Worth Center
09:50PM 34.3203 -96.2467 33° Northeast 246 283 9,400 -960 Descending Fort Worth Center
09:51PM 34.3825 -96.2006 31° Northeast 251 289 8,600 -960 Descending Fort Worth Center
09:52PM 34.4361 -96.1494 38° Northeast 256 295 7,600 -1,020 Descending Fort Worth Center
09:53PM 34.4942 -96.1033 33° Northeast 251 289 6,600 -960 Descending Fort Worth Center
09:54PM 34.5522 -96.0619 30° Northeast 244 281 5,700 -900 Descending Fort Worth Center